Temp: 8.2°C   Baro: 1006.4mb
  Wind: 2.0mph   Dir: NW (325°)
  Rain: 0.0mm (0.0mm/hr)
  Solar: 44W/m2  Hum: 86%
 
Bath Spa Weather Station Historical Data
Daily Summary for November 09, 2019 Units:  English    Metric   Both
Daily Weekly Monthly Yearly Custom
  High: Low: Average:
Temperature: 44.7 °F 29.7 °F 37.8 °F
Dew Point: 43.1 °F 27.7 °F 35.9 °F
Humidity: 95% 89% 93%
Wind Speed: 5.5mph 0mph 1.5mph
Wind Gust: 12mph - -
Wind- - SW
Pressure: 29.92 in 29.54 in -
Precipitation: 0.30 in    
Historical Graphs
 
 
Tabular Data for November 09, 2019
Time Temperature Dew Point Pressure Wind Wind Speed Wind Gust Humidity Rainfall Rate (Hourly) solar
00:04 34.8 °F 31.9 °F 29.91 in NW 0.1 mph 1 mph 89% 0.00 in 0 W/m2
00:09 34.8 °F 31.9 °F 29.92 in NW 0.1 mph 2 mph 89% 0.00 in 0 W/m2
00:14 34.6 °F 31.7 °F 29.92 in NW 0.7 mph 3 mph 89% 0.00 in 0 W/m2
00:19 34.3 °F 31.5 °F 29.92 in Calm   1 mph 89% 0.00 in 0 W/m2
00:24 34.2 °F 31.3 °F 29.92 in Calm     89% 0.00 in 0 W/m2
00:29 34.2 °F 31.3 °F 29.92 in Calm   1 mph 89% 0.00 in 0 W/m2
00:34 34 °F 31.1 °F 29.92 in NW 0.1 mph 1 mph 89% 0.00 in 0 W/m2
00:39 33.8 °F 30.9 °F 29.92 in Calm     89% 0.00 in 0 W/m2
00:44 33.5 °F 30.6 °F 29.92 in Calm     89% 0.00 in 0 W/m2
00:49 33.4 °F 30.6 °F 29.91 in Calm     89% 0.00 in 0 W/m2
00:54 33.3 °F 30.4 °F 29.91 in Calm     89% 0.00 in 0 W/m2
00:59 33.1 °F 30.2 °F 29.91 in Calm     89% 0.00 in 0 W/m2
01:04 33.1 °F 30.3 °F 29.91 in Calm     89.5% 0.00 in 0 W/m2
01:09 32.9 °F 30.4 °F 29.91 in Calm     90% 0.00 in 0 W/m2
01:14 32.7 °F 30.2 °F 29.91 in Calm   1 mph 90% 0.00 in 0 W/m2
01:19 32.7 °F 30.2 °F 29.91 in NW 0.2 mph 2 mph 90% 0.00 in 0 W/m2
01:24 32.4 °F 29.9 °F 29.91 in NW 0.3 mph 1 mph 90% 0.00 in 0 W/m2
01:29 32.4 °F 29.9 °F 29.91 in NW 0.2 mph 1 mph 90% 0.00 in 0 W/m2
01:34 32.5 °F 30 °F 29.91 in Calm   1 mph 90% 0.00 in 0 W/m2
01:39 32.4 °F 29.8 °F 29.91 in Calm     90% 0.00 in 0 W/m2
01:44 32.2 °F 29.7 °F 29.91 in Calm     90% 0.00 in 0 W/m2
01:49 32.2 °F 29.7 °F 29.90 in Calm   1 mph 90% 0.00 in 0 W/m2
01:54 32.1 °F 29.7 °F 29.90 in Calm     90.8% 0.00 in 0 W/m2
01:59 32 °F 29.7 °F 29.90 in Calm     91% 0.00 in 0 W/m2
02:04 31.9 °F 29.6 °F 29.90 in Calm     91% 0.00 in 0 W/m2
02:09 31.8 °F 29.5 °F 29.89 in Calm     91% 0.00 in 0 W/m2
02:14 31.6 °F 29.3 °F 29.89 in Calm     91% 0.00 in 0 W/m2
02:19 31.5 °F 29.2 °F 29.89 in Calm     91% 0.00 in 0 W/m2
02:24 31.6 °F 29.2 °F 29.89 in Calm     91% 0.00 in 0 W/m2
02:29 31.6 °F 29.2 °F 29.89 in Calm     91% 0.00 in 0 W/m2
02:34 31.5 °F 29.1 °F 29.89 in Calm     91% 0.00 in 0 W/m2
02:39 31.5 °F 29.1 °F 29.88 in Calm     91% 0.00 in 0 W/m2
02:44 31.5 °F 29.1 °F 29.88 in Calm     91% 0.00 in 0 W/m2
02:49 31.5 °F 29.1 °F 29.88 in Calm     91% 0.00 in 0 W/m2
02:54 31.4 °F 29 °F 29.88 in Calm     91% 0.00 in 0 W/m2
02:59 31.3 °F 28.9 °F 29.88 in Calm     91% 0.00 in 0 W/m2
03:04 31.4 °F 29 °F 29.87 in Calm     91% 0.00 in 0 W/m2
03:09 31.2 °F 28.9 °F 29.87 in Calm     91% 0.00 in 0 W/m2
03:14 30.9 °F 28.6 °F 29.87 in Calm     91% 0.00 in 0 W/m2
03:19 30.9 °F 28.6 °F 29.87 in Calm     91% 0.00 in 0 W/m2
03:24 30.9 °F 28.6 °F 29.87 in Calm     91% 0.00 in 0 W/m2
03:29 31 °F 28.8 °F 29.86 in Calm     91.4% 0.00 in 0 W/m2
03:34 31 °F 28.9 °F 29.86 in Calm     91.7% 0.00 in 0 W/m2
03:39 30.9 °F 28.9 °F 29.86 in Calm     92% 0.00 in 0 W/m2
03:44 30.7 °F 28.8 °F 29.86 in Calm     92% 0.00 in 0 W/m2
03:49 30.8 °F 28.9 °F 29.86 in Calm     92% 0.00 in 0 W/m2
03:54 30.9 °F 28.9 °F 29.86 in Calm     92% 0.00 in 0 W/m2
03:59 30.8 °F 28.8 °F 29.86 in Calm     92% 0.00 in 0 W/m2
04:04 30.8 °F 28.8 °F 29.85 in Calm     92% 0.00 in 0 W/m2
04:09 30.7 °F 28.7 °F 29.85 in Calm     92% 0.00 in 0 W/m2
04:14 30.6 °F 28.6 °F 29.85 in Calm     92% 0.00 in 0 W/m2
04:19 30.6 °F 28.6 °F 29.85 in Calm     92% 0.00 in 0 W/m2
04:24 30.6 °F 28.7 °F 29.85 in Calm     92% 0.00 in 0 W/m2
04:29 30.7 °F 28.7 °F 29.85 in Calm     92% 0.00 in 0 W/m2
04:34 30.6 °F 28.6 °F 29.84 in Calm     92% 0.00 in 0 W/m2
04:39 30.6 °F 28.6 °F 29.84 in Calm   1 mph 92% 0.00 in 0 W/m2
04:44 30.4 °F 28.4 °F 29.84 in Calm     92% 0.00 in 0 W/m2
04:49 30.4 °F 28.4 °F 29.83 in Calm     92% 0.00 in 0 W/m2
04:54 30.4 °F 28.4 °F 29.83 in Calm     92% 0.00 in 0 W/m2
04:59 30.4 °F 28.4 °F 29.83 in Calm     92% 0.00 in 0 W/m2
05:04 30.3 °F 28.3 °F 29.83 in Calm     92% 0.00 in 0 W/m2
05:09 30.2 °F 28.2 °F 29.82 in Calm     92% 0.00 in 0 W/m2
05:14 30.2 °F 28.2 °F 29.82 in Calm     92% 0.00 in 0 W/m2
05:19 30 °F 28 °F 29.81 in Calm   1 mph 92% 0.00 in 0 W/m2
05:24 30 °F 28 °F 29.81 in Calm   1 mph 92% 0.00 in 0 W/m2
05:29 29.8 °F 27.9 °F 29.81 in Calm     92% 0.00 in 0 W/m2
05:34 29.9 °F 27.9 °F 29.81 in Calm     92% 0.00 in 0 W/m2
05:39 29.9 °F 28 °F 29.80 in Calm     92.2% 0.00 in 0 W/m2
05:44 29.8 °F 28 °F 29.80 in Calm     93% 0.00 in 0 W/m2
05:49 29.8 °F 28 °F 29.80 in Calm     93% 0.00 in 0 W/m2
05:54 29.8 °F 28 °F 29.79 in Calm     93% 0.00 in 0 W/m2
05:59 29.8 °F 27.9 °F 29.80 in Calm     92.1% 0.00 in 0 W/m2
06:04 29.7 °F 27.8 °F 29.79 in Calm     92% 0.00 in 0 W/m2
06:09 29.7 °F 27.7 °F 29.79 in Calm     92.2% 0.00 in 0 W/m2
06:14 29.7 °F 27.9 °F 29.79 in Calm     92.8% 0.00 in 0 W/m2
06:19 29.7 °F 27.9 °F 29.79 in Calm     93% 0.00 in 0 W/m2
06:24 29.8 °F 28 °F 29.79 in Calm     93% 0.00 in 0 W/m2
06:29 29.8 °F 28 °F 29.79 in Calm     93% 0.00 in 0 W/m2
06:34 29.8 °F 28 °F 29.79 in Calm     93% 0.00 in 0 W/m2
06:39 29.8 °F 28 °F 29.78 in Calm   1 mph 93% 0.00 in 0 W/m2
06:44 29.8 °F 28 °F 29.78 in Calm     93% 0.00 in 0 W/m2
06:49 29.8 °F 28 °F 29.78 in Calm     93% 0.00 in 0 W/m2
06:54 29.9 °F 28.1 °F 29.78 in NW 0.1 mph 1 mph 93% 0.00 in 0 W/m2
06:59 30 °F 28.2 °F 29.77 in NW 0.1 mph 2 mph 93% 0.00 in 0 W/m2
07:04 30.3 °F 28.5 °F 29.77 in NW 0.5 mph 3 mph 93% 0.00 in 0 W/m2
07:09 30.6 °F 28.8 °F 29.77 in NE 0.9 mph 7 mph 93% 0.00 in 0 W/m2
07:14 31.1 °F 29.3 °F 29.77 in ESE 1.3 mph 7 mph 93% 0.00 in 5 W/m2
07:19 32 °F 30.2 °F 29.76 in ESE 2.1 mph 7 mph 93% 0.00 in 7 W/m2
07:24 32.8 °F 31 °F 29.76 in ESE 1.9 mph 7 mph 93% 0.00 in 7 W/m2
07:29 33.3 °F 31.5 °F 29.76 in ESE 0.8 mph 5 mph 93% 0.00 in 11 W/m2
07:34 33.4 °F 31.6 °F 29.76 in East 1.7 mph 9 mph 93% 0.00 in 12 W/m2
07:39 33.4 °F 31.6 °F 29.75 in East 1.3 mph 7 mph 93% 0.00 in 18 W/m2
07:44 33.6 °F 31.8 °F 29.75 in East 1.2 mph 8 mph 93.2% 0.00 in 19 W/m2
07:49 33.9 °F 32.1 °F 29.75 in ESE 0.4 mph 4 mph 93% 0.00 in 21 W/m2
07:54 34.1 °F 32.3 °F 29.75 in ESE 2 mph 9 mph 93% 0.00 in 21 W/m2
07:59 34.5 °F 32.7 °F 29.74 in ESE 1.4 mph 3 mph 93% 0.00 in 25 W/m2
08:04 34.9 °F 33.1 °F 29.74 in ESE 0.7 mph 4 mph 93% 0.00 in 28 W/m2
08:09 34.9 °F 33.1 °F 29.73 in ESE 1 mph 4 mph 93% 0.00 in 32 W/m2
08:14 35 °F 33.2 °F 29.73 in ESE 0.6 mph 3 mph 93% 0.00 in 32 W/m2
08:19 35.1 °F 33.3 °F 29.72 in SE 2.5 mph 7 mph 93% 0.00 in 30 W/m2
08:24 35.3 °F 33.5 °F 29.72 in ESE 2.5 mph 8 mph 93% 0.00 in 35 W/m2
08:29 35.4 °F 33.6 °F 29.72 in ESE 2.2 mph 5 mph 93% 0.00 in 35 W/m2
08:34 35.7 °F 33.9 °F 29.72 in East 1.8 mph 5 mph 93% 0.00 in 30 W/m2
08:39 35.8 °F 34 °F 29.71 in East 2.3 mph 7 mph 93% 0.00 in 63 W/m2
08:44 35.8 °F 34 °F 29.71 in ESE 1.1 mph 5 mph 93% 0.00 in 81 W/m2
08:49 36 °F 34.2 °F 29.71 in SE 1.5 mph 8 mph 93% 0.00 in 81 W/m2
08:54 36 °F 34.2 °F 29.71 in SSE 1.1 mph 8 mph 93% 0.00 in 70 W/m2
08:59 36.2 °F 34.2 °F 29.70 in East 1.4 mph 7 mph 92.3% 0.00 in 60 W/m2
09:04 36.3 °F 34.2 °F 29.70 in ENE 0.8 mph 6 mph 92% 0.00 in 53 W/m2
09:09 36.3 °F 34.2 °F 29.70 in ENE 0.7 mph 3 mph 92% 0.00 in 56 W/m2
09:14 36.5 °F 34.3 °F 29.70 in ENE 1.7 mph 6 mph 92% 0.00 in 56 W/m2
09:19 36.7 °F 34.5 °F 29.70 in East 1.5 mph 5 mph 92% 0.00 in 53 W/m2
09:24 36.8 °F 34.6 °F 29.69 in ESE 2.7 mph 9 mph 92% 0.00 in 46 W/m2
09:29 36.9 °F 34.7 °F 29.68 in ESE 1.7 mph 5 mph 92% 0.00 in 60 W/m2
09:34 37 °F 34.8 °F 29.68 in ESE 2.6 mph 7 mph 91.5% 0.00 in 60 W/m2
09:39 37 °F 34.7 °F 29.67 in ESE 4 mph 9 mph 91% 0.00 in 46 W/m2
09:44 37.1 °F 34.8 °F 29.67 in ESE 2.6 mph 10 mph 91% 0.00 in 44 W/m2
09:49 37.2 °F 34.9 °F 29.67 in ESE 2.6 mph 8 mph 91% 0.00 in 40 W/m2
09:54 37.3 °F 35 °F 29.67 in SE 2.2 mph 7 mph 91% 0.00 in 40 W/m2
09:59 37.6 °F 35.2 °F 29.66 in SE 3.6 mph 9 mph 91% 0.00 in 35 W/m2
10:04 37.7 °F 35.3 °F 29.66 in SE 2.3 mph 9 mph 91% 0.00 in 26 W/m2
10:09 37.8 °F 35.4 °F 29.66 in ESE 1.9 mph 5 mph 91% 0.01 in 21 W/m2
10:14 37.8 °F 35.5 °F 29.66 in ESE 2.6 mph 6 mph 91% 0.01 in 19 W/m2
10:19 37.9 °F 35.6 °F 29.65 in ESE 3.2 mph 7 mph 91% 0.02 in 19 W/m2
10:24 38.1 °F 35.8 °F 29.65 in ESE 2.7 mph 8 mph 91% 0.02 in 18 W/m2
10:29 38.3 °F 36 °F 29.65 in ESE 2.3 mph 8 mph 91% 0.03 in 12 W/m2
10:34 38.5 °F 36.1 °F 29.65 in ESE 2.8 mph 9 mph 91% 0.04 in 9 W/m2
10:39 38.5 °F 36.1 °F 29.65 in ESE 2.6 mph 6 mph 91% 0.06 in 11 W/m2
10:44 38.5 °F 36.1 °F 29.64 in ESE 1.7 mph 6 mph 91% 0.07 in 16 W/m2
10:49 38.5 °F 36.1 °F 29.64 in SE 2.4 mph 6 mph 91% 0.09 in 19 W/m2
10:54 38.7 °F 36.4 °F 29.64 in SE 2.1 mph 6 mph 91.5% 0.11 in 21 W/m2
10:59 38.8 °F 36.7 °F 29.64 in ESE 2 mph 8 mph 92% 0.12 in 21 W/m2
11:04 39 °F 36.9 °F 29.63 in ESE 2.9 mph 10 mph 92% 0.13 in 18 W/m2
11:09 39.3 °F 37.1 °F 29.63 in ESE 2.4 mph 10 mph 92% 0.13 in 14 W/m2
11:14 39.4 °F 37.2 °F 29.63 in ESE 0.6 mph 5 mph 92% 0.14 in 14 W/m2
11:19 39.5 °F 37.3 °F 29.63 in ESE 0.8 mph 4 mph 92% 0.15 in 25 W/m2
11:24 39.6 °F 37.4 °F 29.63 in ESE 1.6 mph 4 mph 92% 0.15 in 28 W/m2
11:29 39.6 °F 37.4 °F 29.62 in ESE 1.5 mph 5 mph 92% 0.15 in 21 W/m2
11:34 39.6 °F 37.4 °F 29.62 in ESE 2.7 mph 9 mph 92% 0.16 in 26 W/m2
11:39 39.7 °F 37.6 °F 29.62 in ESE 3.1 mph 9 mph 92% 0.17 in 26 W/m2
11:44 39.7 °F 37.6 °F 29.61 in SE 2.1 mph 8 mph 92% 0.16 in 25 W/m2
11:49 39.9 °F 38.1 °F 29.61 in ESE 2.4 mph 8 mph 93% 0.15 in 33 W/m2
11:54 39.9 °F 38.1 °F 29.60 in ESE 2.2 mph 7 mph 93% 0.13 in 33 W/m2
11:59 40.1 °F 38.3 °F 29.60 in ESE 2.1 mph 7 mph 93% 0.12 in 35 W/m2
12:04 40.3 °F 38.5 °F 29.59 in East 1.6 mph 5 mph 93% 0.12 in 37 W/m2
12:09 40.5 °F 38.7 °F 29.59 in ESE 2.1 mph 7 mph 93% 0.12 in 35 W/m2
12:14 40.6 °F 38.8 °F 29.59 in ESE 2.1 mph 7 mph 93% 0.11 in 32 W/m2
12:19 40.6 °F 38.8 °F 29.58 in ESE 3.9 mph 10 mph 93% 0.10 in 30 W/m2
12:24 40.6 °F 38.8 °F 29.58 in ESE 2.4 mph 10 mph 93% 0.09 in 28 W/m2
12:29 40.8 °F 39 °F 29.58 in SE 2.1 mph 10 mph 93% 0.09 in 26 W/m2
12:34 40.8 °F 39 °F 29.58 in ESE 3.5 mph 7 mph 93% 0.09 in 32 W/m2
12:39 40.9 °F 39.1 °F 29.57 in ESE 4.4 mph 8 mph 93% 0.08 in 37 W/m2
12:44 41.1 °F 39.5 °F 29.56 in ESE 4.2 mph 9 mph 93.8% 0.07 in 37 W/m2
12:49 41.3 °F 39.7 °F 29.56 in East 4.3 mph 10 mph 93.8% 0.07 in 44 W/m2
12:54 41.4 °F 39.7 °F 29.55 in East 3.2 mph 9 mph 94% 0.07 in 47 W/m2
12:59 41.5 °F 39.8 °F 29.54 in East 3.6 mph 10 mph 94% 0.07 in 47 W/m2
13:04 41.5 °F 39.9 °F 29.54 in East 1.2 mph 6 mph 94% 0.06 in 54 W/m2
13:09 41.5 °F 39.9 °F 29.54 in ENE 0.2 mph 3 mph 94% 0.06 in 54 W/m2
13:14 41.5 °F 39.9 °F 29.54 in East 1.2 mph 5 mph 94% 0.06 in 39 W/m2
13:19 41.7 °F 40.1 °F 29.55 in East 0.6 mph 5 mph 94% 0.05 in 26 W/m2
13:24 41.7 °F 40.1 °F 29.55 in East 1.8 mph 4 mph 94% 0.04 in 51 W/m2
13:29 42 °F 40.4 °F 29.55 in East 0.6 mph 4 mph 94% 0.03 in 54 W/m2
13:34 42.1 °F 40.5 °F 29.55 in ESE 2.3 mph 7 mph 94% 0.03 in 74 W/m2
13:39 42.2 °F 40.6 °F 29.54 in ESE 2.2 mph 6 mph 94% 0.02 in 74 W/m2
13:44 42.3 °F 40.6 °F 29.54 in ESE 2.3 mph 6 mph 94% 0.02 in 72 W/m2
13:49 42.4 °F 40.7 °F 29.54 in ESE 1.7 mph 5 mph 94% 0.02 in 86 W/m2
13:54 42.4 °F 40.8 °F 29.54 in ESE 0.5 mph 4 mph 94% 0.01 in 86 W/m2
13:59 42.6 °F 41 °F 29.54 in ESE 0.5 mph 2 mph 94% 0.00 in 67 W/m2
14:04 42.8 °F 41.2 °F 29.54 in ESE 0.1 mph 2 mph 94% 0.00 in 70 W/m2
14:09 43 °F 41.4 °F 29.54 in Calm   1 mph 94% 0.00 in 72 W/m2
14:14 43.1 °F 41.4 °F 29.54 in ESE 0.4 mph 2 mph 94% 0.00 in 83 W/m2
14:19 43.2 °F 41.5 °F 29.54 in Calm   2 mph 94% 0.00 in 93 W/m2
14:24 43.3 °F 41.7 °F 29.54 in Calm     94% 0.00 in 137 W/m2
14:29 43.5 °F 41.9 °F 29.54 in Calm     94% 0.00 in 186 W/m2
14:34 43.9 °F 42.3 °F 29.54 in Calm     94% 0.00 in 230 W/m2
14:39 44.2 °F 42.9 °F 29.54 in ESE 0.3 mph 2 mph 94.9% 0.00 in 258 W/m2
14:44 44.4 °F 43.1 °F 29.54 in Calm   1 mph 94.8% 0.00 in 251 W/m2
14:49 44.7 °F 43.1 °F 29.54 in Calm     94% 0.00 in 230 W/m2
14:54 44.6 °F 43 °F 29.54 in Calm   1 mph 94.1% 0.00 in 141 W/m2
14:59 44.4 °F 43.1 °F 29.54 in ESE 0.4 mph 2 mph 94.6% 0.00 in 72 W/m2
15:04 44.4 °F 43.1 °F 29.54 in ESE 0.4 mph 3 mph 94.7% 0.00 in 67 W/m2
15:09 44.4 °F 43.1 °F 29.54 in ESE 2.3 mph 4 mph 94.7% 0.00 in 56 W/m2
15:14 44.2 °F 43 °F 29.54 in ESE 2.9 mph 5 mph 95% 0.00 in 49 W/m2
15:19 44.2 °F 43 °F 29.54 in NW 2.9 mph 8 mph 95% 0.00 in 67 W/m2
15:24 44.1 °F 42.6 °F 29.54 in West 3.9 mph 8 mph 94.5% 0.00 in 88 W/m2
15:29 44.1 °F 42.4 °F 29.54 in West 3.1 mph 7 mph 94% 0.00 in 90 W/m2
15:34 43.9 °F 42.3 °F 29.54 in WNW 4.1 mph 8 mph 94% 0.00 in 90 W/m2
15:39 43.9 °F 42.3 °F 29.54 in WNW 2.2 mph 6 mph 94% 0.00 in 83 W/m2
15:44 43.9 °F 42.3 °F 29.54 in WNW 1.2 mph 6 mph 94% 0.00 in 74 W/m2
15:49 43.9 °F 42.3 °F 29.54 in WNW 0.7 mph 6 mph 94% 0.00 in 69 W/m2
15:54 43.9 °F 42.3 °F 29.54 in WNW 1.9 mph 7 mph 94% 0.00 in 40 W/m2
15:59 43.9 °F 42.3 °F 29.54 in NW 3.2 mph 8 mph 94% 0.00 in 18 W/m2
16:04 43.7 °F 42.1 °F 29.54 in NW 3.4 mph 7 mph 94% 0.00 in 18 W/m2
16:09 43.5 °F 41.9 °F 29.54 in NW 2.1 mph 5 mph 94% 0.00 in 14 W/m2
16:14 43.3 °F 41.7 °F 29.54 in NW 2.1 mph 7 mph 94% 0.00 in 9 W/m2
16:19 43.2 °F 41.5 °F 29.54 in NW 2.6 mph 5 mph 94% 0.00 in 5 W/m2
16:24 43.2 °F 41.5 °F 29.54 in NW 1.6 mph 6 mph 94% 0.00 in 5 W/m2
16:29 43 °F 41.4 °F 29.55 in WNW 2.8 mph 8 mph 94% 0.00 in 0 W/m2
16:34 43 °F 41.4 °F 29.55 in NW 4.5 mph 9 mph 94% 0.00 in 0 W/m2
16:39 42.8 °F 41.2 °F 29.56 in NW 4 mph 9 mph 94% 0.00 in 0 W/m2
16:44 42.7 °F 41.1 °F 29.56 in NW 3.6 mph 10 mph 94% 0.00 in 0 W/m2
16:49 42.6 °F 41 °F 29.56 in NW 3.9 mph 10 mph 94% 0.00 in 0 W/m2
16:54 42.5 °F 40.9 °F 29.56 in NW 4 mph 9 mph 94% 0.00 in 0 W/m2
16:59 42.4 °F 40.8 °F 29.56 in NW 2.6 mph 9 mph 94% 0.00 in 0 W/m2
17:04 42.3 °F 40.7 °F 29.56 in NW 1.8 mph 6 mph 94% 0.00 in 0 W/m2
17:09 42.3 °F 40.7 °F 29.57 in NW 2.2 mph 6 mph 94% 0.00 in 0 W/m2
17:14 42.3 °F 40.7 °F 29.57 in NW 0.8 mph 4 mph 94% 0.00 in 0 W/m2
17:19 42.4 °F 40.8 °F 29.57 in NW 0.9 mph 9 mph 94% 0.00 in 0 W/m2
17:24 42.3 °F 40.6 °F 29.57 in NW 5.5 mph 9 mph 94% 0.00 in 0 W/m2
17:29 42.3 °F 40.6 °F 29.57 in WNW 3.7 mph 9 mph 94% 0.00 in 0 W/m2
17:34 42.3 °F 40.6 °F 29.57 in NW 2.3 mph 7 mph 94% 0.00 in 0 W/m2
17:39 42.3 °F 40.6 °F 29.57 in NW 1.7 mph 6 mph 94% 0.00 in 0 W/m2
17:44 42.3 °F 40.6 °F 29.57 in NW 1.6 mph 5 mph 94% 0.00 in 0 W/m2
17:49 42.3 °F 40.6 °F 29.57 in NW 0.6 mph 3 mph 94% 0.00 in 0 W/m2
17:54 42.3 °F 40.6 °F 29.57 in NW 0.6 mph 2 mph 94% 0.00 in 0 W/m2
17:59 42.1 °F 40.5 °F 29.57 in NW 0.1 mph 2 mph 94% 0.00 in 0 W/m2
18:04 41.9 °F 40.3 °F 29.57 in NW 1.8 mph 5 mph 94% 0.00 in 0 W/m2
18:09 41.6 °F 40 °F 29.57 in NW 1.5 mph 4 mph 94% 0.00 in 0 W/m2
18:14 41.6 °F 40 °F 29.57 in NW 1.6 mph 4 mph 94% 0.00 in 0 W/m2
18:19 41.7 °F 40.1 °F 29.57 in NW 0.5 mph 4 mph 94% 0.00 in 0 W/m2
18:24 41.7 °F 40.1 °F 29.57 in NW 1.7 mph 5 mph 94% 0.00 in 0 W/m2
18:29 41.6 °F 40 °F 29.58 in Calm   5 mph 94% 0.00 in 0 W/m2
18:34 41.7 °F 40.1 °F 29.57 in NW 0.3 mph 3 mph 94% 0.00 in 0 W/m2
18:39 41.7 °F 40.1 °F 29.58 in NW 0.3 mph 2 mph 94% 0.00 in 0 W/m2
18:44 41.7 °F 40.1 °F 29.58 in NW 0.6 mph 3 mph 94% 0.00 in 0 W/m2
18:49 41.7 °F 40.1 °F 29.58 in NW 2.4 mph 5 mph 94% 0.00 in 0 W/m2
18:54 41.7 °F 40.1 °F 29.58 in NW 2.2 mph 5 mph 94% 0.00 in 0 W/m2
18:59 41.7 °F 40.1 °F 29.57 in NW 2 mph 5 mph 94% 0.00 in 0 W/m2
19:04 41.7 °F 40.1 °F 29.57 in WNW 2.2 mph 5 mph 94% 0.00 in 0 W/m2
19:09 41.7 °F 40.1 °F 29.58 in WNW 2.5 mph 6 mph 94% 0.00 in 0 W/m2
19:14 41.7 °F 40.1 °F 29.58 in WNW 2.5 mph 6 mph 94% 0.00 in 0 W/m2
19:19 41.6 °F 40 °F 29.58 in WNW 2.8 mph 5 mph 94% 0.00 in 0 W/m2
19:24 41.6 °F 40 °F 29.57 in WNW 3.1 mph 5 mph 94% 0.00 in 0 W/m2
19:29 41.6 °F 40 °F 29.57 in WNW 3.1 mph 5 mph 94% 0.00 in 0 W/m2
19:34 41.6 °F 40 °F 29.58 in WNW 1.8 mph 5 mph 94% 0.00 in 0 W/m2
19:39 41.7 °F 40.1 °F 29.58 in WNW 1.2 mph 3 mph 94% 0.00 in 0 W/m2
19:44 41.7 °F 40.1 °F 29.58 in WNW 0.6 mph 3 mph 94% 0.00 in 0 W/m2
19:49 41.7 °F 40.1 °F 29.58 in WNW 1.3 mph 4 mph 94% 0.00 in 0 W/m2
19:54 41.7 °F 40.1 °F 29.58 in WNW 1.5 mph 5 mph 94% 0.00 in 0 W/m2
19:59 41.7 °F 40.1 °F 29.58 in WNW 1.8 mph 4 mph 94% 0.00 in 0 W/m2
20:04 41.7 °F 40.1 °F 29.58 in WNW 2.3 mph 6 mph 94% 0.00 in 0 W/m2
20:09 41.8 °F 40.2 °F 29.58 in WNW 1.2 mph 4 mph 94% 0.00 in 0 W/m2
20:14 41.9 °F 40.3 °F 29.58 in WNW 1 mph 4 mph 94% 0.00 in 0 W/m2
20:19 41.9 °F 40.3 °F 29.58 in WNW 1.7 mph 5 mph 94% 0.00 in 0 W/m2
20:24 41.9 °F 40.3 °F 29.58 in WNW 0.6 mph 3 mph 94% 0.00 in 0 W/m2
20:29 41.9 °F 40.3 °F 29.58 in WNW 2 mph 5 mph 94% 0.00 in 0 W/m2
20:34 41.9 °F 40.3 °F 29.58 in WNW 2.1 mph 6 mph 94% 0.00 in 0 W/m2
20:39 41.9 °F 40.3 °F 29.58 in WNW 0.7 mph 4 mph 94% 0.00 in 0 W/m2
20:44 41.9 °F 40.3 °F 29.58 in WNW 0.2 mph 3 mph 94% 0.00 in 0 W/m2
20:49 41.7 °F 40.1 °F 29.58 in WNW 1.2 mph 5 mph 94% 0.00 in 0 W/m2
20:54 41.7 °F 40.1 °F 29.58 in WNW 1.7 mph 6 mph 94% 0.00 in 0 W/m2
20:59 41.7 °F 40.1 °F 29.58 in WNW 1.1 mph 3 mph 94% 0.00 in 0 W/m2
21:04 41.6 °F 40 °F 29.58 in NW 2.4 mph 7 mph 94% 0.00 in 0 W/m2
21:09 41.5 °F 39.9 °F 29.58 in NNW 2.6 mph 7 mph 94% 0.00 in 0 W/m2
21:14 41.5 °F 39.8 °F 29.59 in NW 2.8 mph 7 mph 94% 0.00 in 0 W/m2
21:19 41.5 °F 39.8 °F 29.59 in NW 2.3 mph 6 mph 94% 0.00 in 0 W/m2
21:24 41.5 °F 39.9 °F 29.59 in NW 2.9 mph 6 mph 94% 0.00 in 0 W/m2
21:29 41.5 °F 39.9 °F 29.59 in NW 3.2 mph 7 mph 94% 0.00 in 0 W/m2
21:34 41.5 °F 39.9 °F 29.59 in NW 2.2 mph 7 mph 94% 0.00 in 0 W/m2
21:39 41.5 °F 39.9 °F 29.59 in NW 2.1 mph 7 mph 94% 0.00 in 0 W/m2
21:44 41.7 °F 40.1 °F 29.59 in NW 2 mph 5 mph 94% 0.00 in 0 W/m2
21:49 41.7 °F 40.1 °F 29.59 in NW 1 mph 4 mph 94% 0.00 in 0 W/m2
21:54 41.6 °F 40 °F 29.59 in NNW 4.5 mph 9 mph 94% 0.00 in 0 W/m2
21:59 41.4 °F 39.8 °F 29.59 in NNW 3.7 mph 8 mph 94% 0.00 in 0 W/m2
22:04 41.4 °F 39.7 °F 29.59 in North 2 mph 7 mph 94% 0.00 in 0 W/m2
22:09 41.3 °F 39.6 °F 29.59 in North 4.2 mph 8 mph 94% 0.00 in 0 W/m2
22:14 41.2 °F 39.6 °F 29.59 in NNE 4.6 mph 10 mph 94% 0.00 in 0 W/m2
22:19 41 °F 39.4 °F 29.59 in North 4.7 mph 10 mph 94% 0.00 in 0 W/m2
22:24 41 °F 39.4 °F 29.59 in North 3.2 mph 8 mph 94% 0.00 in 0 W/m2
22:29 41 °F 39.4 °F 29.59 in North 4.1 mph 12 mph 94% 0.00 in 0 W/m2
22:34 40.9 °F 39.3 °F 29.59 in NNW 3.8 mph 9 mph 94% 0.00 in 0 W/m2
22:39 40.9 °F 39.3 °F 29.59 in NNW 2.8 mph 9 mph 94% 0.00 in 0 W/m2
22:44 41 °F 39.4 °F 29.60 in North 2.5 mph 7 mph 94% 0.00 in 0 W/m2
22:49 41.1 °F 39.5 °F 29.60 in NNW 1.5 mph 8 mph 94% 0.00 in 0 W/m2
22:54 41.1 °F 39.5 °F 29.60 in NNW 1.4 mph 4 mph 94% 0.00 in 0 W/m2
22:59 41.2 °F 39.6 °F 29.60 in North 3.8 mph 10 mph 94% 0.00 in 0 W/m2
23:04 41.2 °F 39.6 °F 29.60 in NNW 4.4 mph 11 mph 94% 0.00 in 0 W/m2
23:09 41.3 °F 39.6 °F 29.60 in NNW 5 mph 9 mph 94% 0.00 in 0 W/m2
23:14 41.3 °F 39.7 °F 29.61 in NNW 4.4 mph 9 mph 94% 0.00 in 0 W/m2
23:19 41.4 °F 39.7 °F 29.61 in NNW 5.5 mph 10 mph 94% 0.00 in 0 W/m2
23:24 41.4 °F 39.7 °F 29.61 in NNW 4.4 mph 10 mph 94% 0.00 in 0 W/m2
23:29 41.4 °F 39.7 °F 29.61 in NNW 2.4 mph 9 mph 94% 0.00 in 0 W/m2
23:34 41.4 °F 39.7 °F 29.61 in NNW 4.1 mph 10 mph 94% 0.00 in 0 W/m2
23:39 41.4 °F 39.7 °F 29.61 in NW 3.1 mph 11 mph 94% 0.00 in 0 W/m2
23:44 41.4 °F 39.7 °F 29.62 in North 3.1 mph 8 mph 94% 0.00 in 0 W/m2
23:49 41.4 °F 39.7 °F 29.62 in NNW 3.1 mph 8 mph 94% 0.00 in 0 W/m2
23:54 41.4 °F 39.7 °F 29.61 in NW 2.7 mph 8 mph 94% 0.00 in 0 W/m2
23:59 41.4 °F 39.7 °F 29.62 in NW 3.1 mph 9 mph 94% 0.00 in 0 W/m2
Bath Spa Weather
Compliments of Weather Underground - 2 mb